Time;durP1;ratioP1;P1;durP2;ratioP2;P2;SDS_P1;SDS_P2;PMS_P1;PMS_P2;Temp;Humidity;BMP_temperature;BMP_pressure;BME280_temperature;BME280_humidity;BME280_pressure;Samples;Min_cycle;Max_cycle;Signal;HPM_P1;HPM_P2
2022/12/16 00:02:08;;;;;;;;;;;;;;;0.78;57.71;100302.72;5051621;28;19925;-51
2022/12/16 00:04:33;;;;;;;;;;;;;;;0.88;57.41;100296.84;5050642;28;20257;-54
2022/12/16 00:06:59;;;;;;;;;;;;;;;0.63;57.50;100311.94;5042402;28;19933;-54
2022/12/16 00:09:24;;;;;;;;;;;;;;;0.72;57.67;100301.78;5038333;28;20436;-51
2022/12/16 00:11:50;;;;;;;;;;;;;;;0.68;57.56;100310.31;5035673;28;20336;-50
2022/12/16 00:14:15;;;;;;;;;;;;;;;0.75;57.61;100313.84;5041954;28;20088;-54
2022/12/16 00:16:40;;;;;;;;;;;;;;;0.78;57.72;100300.13;5042955;28;20301;-52
2022/12/16 00:19:06;;;;;;;;;;;;;;;0.65;57.66;100305.09;5038850;28;19925;-54
2022/12/16 00:21:31;;;;;;;;;;;;;;;0.77;57.72;100301.84;5048734;28;19925;-56
2022/12/16 00:23:57;;;;;;;;;;;;;;;0.44;58.18;100310.75;5042131;28;20054;-53
2022/12/16 00:26:22;;;;;;;;;;;;;;;0.44;58.29;100303.00;5051412;28;19920;-51
2022/12/16 00:28:47;;;;;;;;;;;;;;;0.46;58.33;100305.59;5051516;28;19958;-54
2022/12/16 00:31:13;;;;;;;;;;;;;;;0.44;58.39;100313.34;5046741;28;20440;-54
2022/12/16 00:33:38;;;;;;;;;;;;;;;0.46;58.31;100315.94;5039494;28;19939;-52
2022/12/16 00:36:04;;;;;;;;;;;;;;;0.45;58.42;100314.22;5038630;28;19927;-55
2022/12/16 00:38:29;;;;;;;;;;;;;;;0.75;57.65;100316.44;5037151;28;19924;-55
2022/12/16 00:40:54;;;;;;;;;;;;;;;0.82;57.43;100310.53;5039919;28;19924;-54
2022/12/16 00:43:20;;;;;;;;;;;;;;;0.78;57.46;100313.06;5047531;28;20421;-53
2022/12/16 00:45:45;;;;;;;;;;;;;;;0.77;57.05;100319.94;5046312;28;20325;-54
2022/12/16 00:48:11;;;;;;;;;;;;;;;0.83;57.10;100324.34;5049089;28;19921;-54
2022/12/16 00:50:36;;;;;;;;;;;;;;;0.92;57.18;100324.50;5048969;28;19924;-54
2022/12/16 00:53:02;;;;;;;;;;;;;;;0.93;57.07;100326.25;5051501;28;19960;-53
2022/12/16 00:55:27;;;;;;;;;;;;;;;0.98;56.91;100330.63;5050302;28;20380;-53
2022/12/16 00:57:53;;;;;;;;;;;;;;;0.97;57.00;100323.72;5046627;28;19944;-55
2022/12/16 01:00:19;;;;;;;;;;;;;;;0.63;57.60;100332.63;5037564;28;19925;-54
2022/12/16 01:02:46;;;;;;;;;;;;;;;0.62;57.79;100335.19;5041263;28;19921;-58
2022/12/16 01:05:12;;;;;;;;;;;;;;;0.63;57.83;100331.75;5041194;28;20293;-53
2022/12/16 01:07:38;;;;;;;;;;;;;;;0.70;57.88;100333.59;5045714;28;19924;-52
2022/12/16 01:10:05;;;;;;;;;;;;;;;0.51;58.10;100329.81;5037528;28;19940;-54
2022/12/16 01:12:30;;;;;;;;;;;;;;;0.56;58.13;100329.91;5051523;28;20386;-52
2022/12/16 01:14:55;;;;;;;;;;;;;;;0.58;58.03;100339.44;5040645;28;20012;-52
2022/12/16 01:17:21;;;;;;;;;;;;;;;0.61;57.89;100342.09;5040254;28;19928;-54
2022/12/16 01:19:46;;;;;;;;;;;;;;;0.58;57.94;100338.56;5038534;28;20014;-56
2022/12/16 01:22:12;;;;;;;;;;;;;;;0.58;58.06;100341.16;5050001;28;19932;-55
2022/12/16 01:24:38;;;;;;;;;;;;;;;0.62;57.84;100355.88;5046092;28;19925;-53
2022/12/16 01:27:03;;;;;;;;;;;;;;;0.54;58.17;100350.56;5037605;28;19928;-55
2022/12/16 01:29:28;;;;;;;;;;;;;;;0.57;58.16;100355.81;5044113;28;19917;-50
2022/12/16 01:31:54;;;;;;;;;;;;;;;0.43;58.14;100355.53;5042973;28;19979;-54
2022/12/16 01:34:19;;;;;;;;;;;;;;;0.16;59.13;100360.16;5050465;28;20610;-54
2022/12/16 01:36:44;;;;;;;;;;;;;;;0.09;59.43;100354.00;5039301;28;19932;-51
2022/12/16 01:39:10;;;;;;;;;;;;;;;-0.10;60.32;100357.91;5036204;28;19932;-53
2022/12/16 01:41:35;;;;;;;;;;;;;;;-0.07;60.11;100350.25;5038392;28;20399;-52
2022/12/16 01:44:30;;;;;;;;;;;;;;;-0.16;60.36;100357.81;5037359;28;19995;-52
2022/12/16 01:46:58;;;;;;;;;;;;;;;-0.30;60.51;100356.63;5041531;28;19957;-50
2022/12/16 01:49:26;;;;;;;;;;;;;;;-0.01;60.20;100365.84;5051543;28;19917;-54
2022/12/16 01:51:54;;;;;;;;;;;;;;;0.15;59.76;100366.16;5041460;28;19921;-51
2022/12/16 01:54:25;;;;;;;;;;;;;;;0.22;59.40;100370.63;5037416;28;19966;-54
2022/12/16 01:56:53;;;;;;;;;;;;;;;0.32;58.88;100369.09;5037840;28;20020;-51
2022/12/16 01:59:19;;;;;;;;;;;;;;;0.36;58.87;100365.72;5047327;28;19925;-53
2022/12/16 02:01:44;;;;;;;;;;;;;;;0.48;58.49;100371.16;5043138;28;19932;-51
2022/12/16 02:04:09;;;;;;;;;;;;;;;0.56;58.38;100361.81;5040395;28;19924;-51
2022/12/16 02:06:35;;;;;;;;;;;;;;;0.65;58.22;100372.31;5040519;28;19932;-50
2022/12/16 02:09:03;;;;;;;;;;;;;;;0.90;57.37;100367.59;5050106;28;19932;-51
2022/12/16 02:11:31;;;;;;;;;;;;;;;1.10;56.87;100361.03;5049247;28;19960;-53
2022/12/16 02:14:08;;;;;;;;;;;;;;;1.17;56.47;100360.28;5048375;28;19963;-52
2022/12/16 02:16:40;;;;;;;;;;;;;;;1.16;56.55;100368.91;5040863;28;20377;-51
2022/12/16 02:19:23;;;;;;;;;;;;;;;1.22;55.99;100365.53;5036644;28;19921;-54
2022/12/16 02:22:00;;;;;;;;;;;;;;;1.24;56.20;100358.66;5045746;28;19936;-54
2022/12/16 02:24:39;;;;;;;;;;;;;;;1.29;56.16;100357.00;5048852;28;19974;-56
2022/12/16 02:27:16;;;;;;;;;;;;;;;1.30;55.99;100355.28;5042460;28;19956;-54
2022/12/16 02:29:41;;;;;;;;;;;;;;;1.29;55.97;100350.97;5036412;28;19921;-52
2022/12/16 02:32:07;;;;;;;;;;;;;;;1.29;56.07;100354.44;5046376;28;19928;-52
2022/12/16 02:34:41;;;;;;;;;;;;;;;1.11;55.97;100351.53;5050063;28;19921;-54
2022/12/16 02:37:06;;;;;;;;;;;;;;;1.00;56.93;100343.63;5049214;28;19928;-55
2022/12/16 02:39:41;;;;;;;;;;;;;;;0.82;56.96;100351.94;5050529;28;19920;-54
2022/12/16 02:42:06;;;;;;;;;;;;;;;0.95;57.07;100340.06;5048730;28;20174;-53
2022/12/16 02:44:40;;;;;;;;;;;;;;;1.07;56.79;100341.97;5047289;28;20036;-52
2022/12/16 02:47:06;;;;;;;;;;;;;;;1.05;56.65;100336.78;5042122;28;19960;-54
2022/12/16 02:49:31;;;;;;;;;;;;;;;1.08;56.81;100343.72;5049453;28;19976;-53
2022/12/16 02:51:58;;;;;;;;;;;;;;;1.20;56.25;100347.41;5037205;28;20031;-52
2022/12/16 02:54:24;;;;;;;;;;;;;;;1.17;56.00;100357.69;5035590;28;19921;-53
2022/12/16 02:56:49;;;;;;;;;;;;;;;0.67;57.12;100360.28;5036605;28;19986;-53
2022/12/16 02:59:18;;;;;;;;;;;;;;;0.60;57.39;100347.19;5038832;28;19921;-53
2022/12/16 03:01:52;;;;;;;;;;;;;;;0.52;57.63;100354.84;5046318;28;19917;-52
2022/12/16 03:04:25;;;;;;;;;;;;;;;0.50;57.81;100341.00;5036032;28;19921;-50
2022/12/16 03:06:52;;;;;;;;;;;;;;;0.54;57.92;100353.16;5047562;28;19952;-53
2022/12/16 03:09:23;;;;;;;;;;;;;;;0.58;57.86;100348.91;5048133;28;19964;-51
2022/12/16 03:11:50;;;;;;;;;;;;;;;0.67;57.67;100347.34;5035666;28;19980;-51
2022/12/16 03:14:17;;;;;;;;;;;;;;;0.69;57.50;100342.22;5035444;28;19922;-51
2022/12/16 03:16:43;;;;;;;;;;;;;;;0.70;57.30;100337.06;5044862;28;19956;-50
2022/12/16 03:19:10;;;;;;;;;;;;;;;0.78;57.25;100344.09;5054669;28;19971;-54
2022/12/16 03:21:44;;;;;;;;;;;;;;;0.61;57.79;100339.50;5042945;28;20039;-51
2022/12/16 03:24:12;;;;;;;;;;;;;;;0.74;57.35;100350.91;5045317;28;19921;-50
2022/12/16 03:26:50;;;;;;;;;;;;;;;0.88;57.16;100348.59;5042926;28;19929;-54
2022/12/16 03:29:21;;;;;;;;;;;;;;;1.00;56.88;100346.22;5045400;28;19944;-54
2022/12/16 03:32:09;;;;;;;;;;;;;;;0.98;56.48;100342.72;5051386;28;20418;-54
2022/12/16 03:34:38;;;;;;;;;;;;;;;1.07;56.41;100355.78;5055922;28;19921;-54
2022/12/16 03:37:04;;;;;;;;;;;;;;;1.07;56.32;100363.56;5054517;28;19927;-53
2022/12/16 03:39:31;;;;;;;;;;;;;;;1.13;56.50;100366.25;5047807;28;20380;-54
2022/12/16 03:41:57;;;;;;;;;;;;;;;1.19;56.03;100366.34;5047639;28;19928;-53
2022/12/16 03:44:24;;;;;;;;;;;;;;;1.24;56.31;100366.44;5056889;28;19921;-51
2022/12/16 03:46:49;;;;;;;;;;;;;;;1.35;56.27;100369.16;5045970;28;19929;-51
2022/12/16 03:49:14;;;;;;;;;;;;;;;1.35;55.87;100369.16;5045521;28;20307;-53
2022/12/16 03:51:40;;;;;;;;;;;;;;;1.37;55.67;100360.59;5052381;28;20406;-52
2022/12/16 03:54:05;;;;;;;;;;;;;;;1.31;55.77;100357.03;5042143;28;19928;-50
2022/12/16 03:56:30;;;;;;;;;;;;;;;1.33;55.81;100355.34;5042026;28;19925;-54
2022/12/16 03:58:56;;;;;;;;;;;;;;;1.39;55.91;100353.69;5043371;28;20384;-50
2022/12/16 04:01:22;;;;;;;;;;;;;;;1.43;55.77;100360.66;5047538;28;19967;-56
2022/12/16 04:03:47;;;;;;;;;;;;;;;1.49;55.59;100357.31;5054669;28;19924;-52
2022/12/16 04:06:17;;;;;;;;;;;;;;;1.52;55.28;100354.78;5055720;28;20391;-54
2022/12/16 04:08:44;;;;;;;;;;;;;;;1.56;55.19;100351.38;5053497;28;20015;-54
2022/12/16 04:25:08;;;;;;;;;;;;;;;1.48;55.53;100347.81;5049558;28;20016;-53
2022/12/16 04:27:33;;;;;;;;;;;;;;;1.45;55.52;100348.63;5053908;28;19920;-53
